Saint Paul, MN (55117)

5:31 PM CDT on July 06, 2015 (GMT -0500)
Villa Park Overlook | | Change Station
CLOSE
Current Station
Personal Weather Station
Location: Roseville, MN
Elevation: 965 ft
Nearby Weather Stations

Elev 965 ft 45.00 °N, 93.12 °W | Updated 1 minute ago

Haze
Haze
69.3 °F
Feels Like 69.3 °F
N
1.0
Wind Variable Wind from NNE
Gusts 7.0 mph

Today
High -- | Low -- °F
--% Chance of Precip.
Yesterday
High -- | Low -- °F
Precip. -- in
5:32 AM 9:01 PM
Waning Gibbous, 71% visible
Pressure 29.93 in
Visibility 1.5 miles
Clouds Mostly Cloudy 2400 ft
Overcast 3100 ft
Dew Point 62 °F
Humidity 77%
Rainfall 1.76 in
Snow Depth Not available.
UV 2 out of 12
Pollen .60 out of 12
Air Quality Not available.
Flu Activity Not available.
METAR KSTP 062153Z 36010G22KT 1 1/2SM HZ BKN024 OVC031 21/14 A2994 RMK AO2 SLP134 T02110144

More Conditions Fewer Conditions

Pressure 29.93 in
Visibility 1.5 miles
Clouds Mostly Cloudy 2400 ft
Overcast 3100 ft
Dew Point 62 °F
Humidity 77%
Rainfall 1.76 in
Snow Depth Not available.
UV 2 out of 12
Pollen .60 out of 12
Air Quality Not available.
Flu Activity Not available.
METAR KSTP 062153Z 36010G22KT 1 1/2SM HZ BKN024 OVC031 21/14 A2994 RMK AO2 SLP134 T02110144

More Conditions Fewer Conditions

10-Day Weather Forecast

×

Almanac

Astronomy

Jul. 06, 2015 Rise Set
Actual Time
Civil Twilight
Nautical Twilight
Astronomical Twilight
Moon
Length of Visible Light
Length of Day
Tomorrow will be .
, % of the Moon is Illuminated

Today's Extremes

State Highs State Lows

Community

WunderPhotos

Upload Photos

1,835,666 photos uploaded!

WunderBlogs® & News

Nearby

Air Quality

  Air Quality AQ Index Pollutant
Not available.

Snow Depth

Station Depth Elevation

Earthquake Activity

City Distance Mag. Time & Date
Minimum magnitude displayed is 2.5.

Coastal Water Temperatures

Place Temperature

Stations

Nearby Weather Stations

Station Location Temp. Windchill Dew Point Humidity Wind Precip. Elev Updated Type